Aérodrome :
LOGIN :

S'inscrire | Disclaimer

   EN    FR    IT 

 










Légende :    VFR   VFR Marginal   IFR   IFR Intensif   IFR Très Intensif
Visi : 
Plafond : 
>= 8 km
>= 3000ft
5 à 8 km
1000 à 3000 ft
1500m à 5 km
500 à 1000 ft
800 à 1500m
200 à 500 ft
< 800m
< 200 ft
Symboles :   Orages  Brouillard  Fortes neiges  Fortes précipitations  Vent > 20 kt
SIGMETs :   Divers  Orages  Givrage  Turbulence  Onde Orograph.  Cendres Volcan.







- Altitude de l'aérodrome : 659 ft
- Code IATA : LYN
- Voir les cartes d'approche


LFLY - Lyon Bron

DERNIER METAR :
  • 251800Z AUTO 07004KT 8000 ///TCU 11/10 Q1005 TEMPO 18015G30KT 3000 RA

METARs EXPIRÉS :
  • 251730Z AUTO 10005KT 070V130 7000 FEW052 BKN062 OVC072 11/10 Q1005 TEMPO 18015G30KT 3000 RA SCT005 SCT035TCU OVC040
  • 251700Z AUTO 09005KT 5000 BR NSC 11/11 Q1006 TEMPO 18015G30KT SHRA FEW035CB BKN040TCU
  • 251630Z AUTO 09005KT 6000 FEW015 OVC078 11/10 Q1006 TEMPO 18015G30KT 4000 SHRA FEW035CB BKN040TCU
  • 251600Z AUTO 04003KT 340V110 5000 RA BR FEW016/// OVC076/// ///TCU 11/10 Q1006 TEMPO 18015G30KT FEW035CB BKN040TCU
  • 251530Z AUTO 06004KT 5000 -RA BR FEW005 SCT011 BKN062 11/10 Q1006 TEMPO 18015G30KT SHRA FEW035CB BKN040TCU
  • 251500Z AUTO 07004KT 3400 RA BR FEW016 OVC058 12/11 Q1007 TEMPO 18015G30KT FEW035CB BKN040TCU

TAF TAF LFLY
Valide du 25 à 18h jusqu'au 26 à 18h UTC


251700Z 2518/2618 09005KT 6000 RA FEW015 OVC050
PROB40
TEMPO 2518/2522 18015G30KT 3000 RA SCT005 SCT035TCU OVC040
BECMG 2520/2522 35008KT
BECMG 2522/2524 BKN006
BECMG 2604/2606 NSW
BECMG 2608/2610 SCT012 BKN016
BECMG 2610/2612 SCT020 BKN025
ATIS : +33 4 72 15 87 96
Pas de NOTAMs connus pour ce terrain.



MET'MAP, la Météo Aéronautique d'un coup d'oeil ! - Copyright ORBIFLY Décembre 2007 - Disclaimer

ORBIFLY MET'MAP TEAM :

Programmation & Développement : Alexandra Zaïnal
Conception & Développement : Baudouin d'Aumeries
Co-Programmation & Développement : Marc-Olivier Méhu
Soutien technique & logistique : Manuel Goepfert

Contact : metmap@orbifly.com




SOURCES & CREDITS :

   NOAA